Weather observations for the past three days for
Houma-Terrebonne Airport
Metric (Imperial)
Date Time (cdt) Wind (kph) Vis. (km) Weather Sky Cond. Temperature (ºC) Relative Humidity Wind Chill (°C) Heat Index (°C) Pressure Precipitation (cm)
Air Dwpt 6 hour altimeter (cm) sea level (mb) 1 hr 3 hr 6 hr
Max. Min.
02 18:47 N 24 11.27 Fair CLR 21 7 40% 76.25 0.0
02 16:47 N 26 11.27 Fair CLR 23 8 38% 76.17 0.0
02 15:47 N 26 11.27 A Few Clouds FEW035 23 12 50% 76.17 0.0
02 14:47 N 33 11.27 A Few Clouds and Breezy FEW035 22 12 53% 76.2 0.0
02 13:47 N 39 11.27 A Few Clouds and Breezy FEW035 22 12 53% 76.23 0.0
02 12:47 NE 37 11.27 Partly Cloudy and Breezy SCT035 21 12 57% 76.25 0.0
02 11:47 N 30 G 39 11.27 Partly Cloudy SCT029 19 12 64% 76.3 0.0
02 10:47 NE 26 G 39 11.27 Mostly Cloudy BKN021 BKN026 18 13 73% 76.33 0.0
02 09:47 NE 26 G 39 11.27 Partly Cloudy SCT022 SCT070 18 12 68% 76.25 0.0
02 08:47 NE 26 G 39 11.27 Overcast SCT013 OVC080 16 12 77% 76.17 0.0
02 07:47 NE 30 11.27 Overcast BKN009 OVC033 14 13 94% 76.15 0.0
02 06:47 N 26 11.27 Overcast OVC007 13 13 100% 76.1 0.0
02 05:47 N 24 11.27 Overcast OVC007 13 13 100% 76.02 0.0
01 17:47 NE 30 G 46 11.27 Overcast OVC009 17 17 100% 75.77 0.0
01 16:47 NE 28 11.27 Mostly Cloudy BKN008 18 17 94% 75.74 0.0
01 15:47 N 31 11.27 Overcast BKN007 OVC030 18 18 100% 75.79 0.0
01 14:47 N 17 120.70 Light Rain OVC007 21 21 100% 75.79 0.0
01 13:47 Calm 11.27 Mostly Cloudy BKN007 21 20 94% 75.74 0.0
01 12:47 NE 19 11.27 Overcast OVC007 21 19 88% 75.82 0.0
01 11:47 NE 15 11.27 Overcast OVC007 23 21 89% 75.92 0.0
01 10:47 NE 11 8.05 Mostly Cloudy BKN007 23 21 89% 75.97 0.0
01 09:47 NE 13 8.05 Overcast BKN007 OVC060 23 21 89% 75.97 0.0
01 08:47 NE 15 6.44 Overcast OVC004 22 21 94% 75.87 0.0
01 07:47 N 13 6.44 Overcast OVC004 21 20 94% 75.9 0.0
01 06:47 NE 13 8.05 Overcast OVC005 21 21 100% 75.87 0.0
01 05:47 NE 9 8.05 Overcast OVC005 21 21 100% 75.82 0.0
30 18:50 N 19 3.22 Overcast OVC010 26 21 74% 27 75.82 0.0
30 17:47 S 19 11.27 Mostly Cloudy BKN070 28 21 66% 30 75.74 0.0
30 16:47 S 15 11.27 Partly Cloudy SCT032 SCT038 29 21 62% 31 75.72 0.0
30 15:47 S 26 11.27 Partly Cloudy SCT033 SCT039 28 22 70% 31 75.72 0.0
30 14:47 S 24 11.27 Mostly Cloudy BKN027 29 22 66% 32 75.77 0.0
30 13:47 SW 15 11.27 Mostly Cloudy BKN030 29 21 62% 31 75.82 0.0
30 12:47 SW 13 11.27 Mostly Cloudy SCT030 BKN040 28 21 66% 30 75.9 0.0
30 11:50 S 7 11.27 Mostly Cloudy SCT025 BKN032 BKN055 28 22 70% 31 75.92 0.0
30 10:50 S 6 11.27 Mostly Cloudy BKN021 BKN028 BKN032 27 22 74% 29 75.97 0.0
30 09:47 S 9 11.27 Partly Cloudy SCT012 SCT030 25 23 89% 26 75.9 0.0
30 08:47 SW 7 11.27 Fair CLR 25 23 89% 26 75.9 0.0
30 07:50 S 11 11.27 Partly Cloudy SCT110 25 23 89% 26 75.87 0.0
30 06:50 S 7 11.27 Partly Cloudy SCT120 24 22 89% 24 75.84 0.0
30 05:50 S 6 11.27 Partly Cloudy SCT012 22 22 100% 75.82 0.0
Date Time (cdt) Wind (kph) Vis. (km) Weather Sky Cond. Air Dwpt Max. Min. Relative Humidity Wind Chill (°C) Heat Index (°C) altimeter (cm) sea level (mb) 1 hr 3 hr 6 hr
6 hour
Temperature (ºC) Pressure Precipitation (cm)